sensor_id;sensor_type;location;lat;lon;timestamp;P1;durP1;ratioP1;P2;durP2;ratioP2
14118;SDS011;7138;49.246;9.100;2022-08-11T00:01:43;5.95;;;1.70;;
14118;SDS011;7138;49.246;9.100;2022-08-11T00:04:13;4.38;;;1.45;;
14118;SDS011;7138;49.246;9.100;2022-08-11T00:06:44;3.67;;;1.67;;
14118;SDS011;7138;49.246;9.100;2022-08-11T00:11:43;4.97;;;1.70;;
14118;SDS011;7138;49.246;9.100;2022-08-11T00:14:13;4.18;;;1.90;;
14118;SDS011;7138;49.246;9.100;2022-08-11T00:16:52;5.30;;;1.80;;
14118;SDS011;7138;49.246;9.100;2022-08-11T00:19:21;3.65;;;1.83;;
14118;SDS011;7138;49.246;9.100;2022-08-11T00:24:18;6.47;;;1.70;;
14118;SDS011;7138;49.246;9.100;2022-08-11T00:26:47;5.75;;;2.10;;
14118;SDS011;7138;49.246;9.100;2022-08-11T00:29:14;4.25;;;1.95;;
14118;SDS011;7138;49.246;9.100;2022-08-11T00:31:43;7.78;;;1.90;;
14118;SDS011;7138;49.246;9.100;2022-08-11T00:34:14;5.65;;;1.92;;
14118;SDS011;7138;49.246;9.100;2022-08-11T00:36:46;3.20;;;1.80;;
14118;SDS011;7138;49.246;9.100;2022-08-11T00:39:19;3.20;;;1.50;;
14118;SDS011;7138;49.246;9.100;2022-08-11T00:41:54;3.88;;;1.67;;
14118;SDS011;7138;49.246;9.100;2022-08-11T00:44:36;4.47;;;1.70;;
14118;SDS011;7138;49.246;9.100;2022-08-11T00:47:21;6.68;;;1.90;;
14118;SDS011;7138;49.246;9.100;2022-08-11T00:50:17;5.32;;;2.03;;
14118;SDS011;7138;49.246;9.100;2022-08-11T00:52:58;5.13;;;1.70;;
14118;SDS011;7138;49.246;9.100;2022-08-11T01:02:09;3.60;;;1.80;;
14118;SDS011;7138;49.246;9.100;2022-08-11T01:04:55;4.50;;;1.75;;
14118;SDS011;7138;49.246;9.100;2022-08-11T01:08:32;4.80;;;1.90;;
14118;SDS011;7138;49.246;9.100;2022-08-11T01:25:05;5.63;;;1.67;;
14118;SDS011;7138;49.246;9.100;2022-08-11T01:31:41;3.35;;;1.70;;
14118;SDS011;7138;49.246;9.100;2022-08-11T01:41:19;4.47;;;1.80;;
14118;SDS011;7138;49.246;9.100;2022-08-11T01:47:33;5.65;;;1.75;;
14118;SDS011;7138;49.246;9.100;2022-08-11T01:50:16;4.63;;;1.90;;
14118;SDS011;7138;49.246;9.100;2022-08-11T01:53:03;5.03;;;1.77;;
14118;SDS011;7138;49.246;9.100;2022-08-11T01:55:43;7.20;;;2.00;;
14118;SDS011;7138;49.246;9.100;2022-08-11T01:58:23;4.65;;;1.90;;
14118;SDS011;7138;49.246;9.100;2022-08-11T02:01:01;6.25;;;2.00;;
14118;SDS011;7138;49.246;9.100;2022-08-11T02:03:53;4.47;;;2.08;;
14118;SDS011;7138;49.246;9.100;2022-08-11T02:06:30;4.88;;;1.70;;
14118;SDS011;7138;49.246;9.100;2022-08-11T02:09:24;4.25;;;1.90;;
14118;SDS011;7138;49.246;9.100;2022-08-11T02:12:49;11.40;;;2.03;;
14118;SDS011;7138;49.246;9.100;2022-08-11T02:15:23;3.15;;;1.95;;
14118;SDS011;7138;49.246;9.100;2022-08-11T02:18:03;6.28;;;2.03;;
14118;SDS011;7138;49.246;9.100;2022-08-11T02:20:36;6.35;;;2.05;;
14118;SDS011;7138;49.246;9.100;2022-08-11T02:23:34;3.78;;;1.80;;
14118;SDS011;7138;49.246;9.100;2022-08-11T02:26:15;3.75;;;1.70;;
14118;SDS011;7138;49.246;9.100;2022-08-11T02:28:52;4.78;;;2.25;;
14118;SDS011;7138;49.246;9.100;2022-08-11T02:31:36;6.68;;;2.10;;
14118;SDS011;7138;49.246;9.100;2022-08-11T02:34:37;4.15;;;1.90;;
14118;SDS011;7138;49.246;9.100;2022-08-11T02:37:13;4.45;;;2.05;;
14118;SDS011;7138;49.246;9.100;2022-08-11T02:40:07;9.15;;;2.28;;
14118;SDS011;7138;49.246;9.100;2022-08-11T02:42:51;6.57;;;1.90;;
14118;SDS011;7138;49.246;9.100;2022-08-11T02:45:36;5.55;;;2.20;;
14118;SDS011;7138;49.246;9.100;2022-08-11T02:48:30;4.32;;;1.83;;
14118;SDS011;7138;49.246;9.100;2022-08-11T02:51:35;5.55;;;2.00;;
14118;SDS011;7138;49.246;9.100;2022-08-11T02:54:10;4.35;;;1.92;;
14118;SDS011;7138;49.246;9.100;2022-08-11T02:56:47;5.82;;;2.08;;
14118;SDS011;7138;49.246;9.100;2022-08-11T02:59:27;4.00;;;1.92;;
14118;SDS011;7138;49.246;9.100;2022-08-11T03:02:28;4.88;;;2.05;;
14118;SDS011;7138;49.246;9.100;2022-08-11T03:05:25;5.55;;;2.05;;
14118;SDS011;7138;49.246;9.100;2022-08-11T03:08:17;4.47;;;1.67;;
14118;SDS011;7138;49.246;9.100;2022-08-11T03:11:00;5.03;;;2.03;;
14118;SDS011;7138;49.246;9.100;2022-08-11T03:13:58;4.07;;;1.90;;
14118;SDS011;7138;49.246;9.100;2022-08-11T03:17:01;3.50;;;2.05;;
14118;SDS011;7138;49.246;9.100;2022-08-11T03:19:45;4.93;;;2.17;;
14118;SDS011;7138;49.246;9.100;2022-08-11T03:22:32;5.10;;;2.40;;
14118;SDS011;7138;49.246;9.100;2022-08-11T03:25:05;5.15;;;1.85;;
14118;SDS011;7138;49.246;9.100;2022-08-11T03:27:48;4.70;;;2.20;;
14118;SDS011;7138;49.246;9.100;2022-08-11T03:30:26;4.90;;;1.85;;
14118;SDS011;7138;49.246;9.100;2022-08-11T03:33:14;4.10;;;2.25;;
14118;SDS011;7138;49.246;9.100;2022-08-11T03:36:22;3.80;;;1.85;;
14118;SDS011;7138;49.246;9.100;2022-08-11T03:39:19;5.90;;;2.20;;
14118;SDS011;7138;49.246;9.100;2022-08-11T03:42:05;5.43;;;2.22;;
14118;SDS011;7138;49.246;9.100;2022-08-11T03:44:51;3.97;;;1.95;;
14118;SDS011;7138;49.246;9.100;2022-08-11T03:47:46;5.05;;;2.10;;
14118;SDS011;7138;49.246;9.100;2022-08-11T03:50:29;6.63;;;2.28;;
14118;SDS011;7138;49.246;9.100;2022-08-11T03:53:17;7.40;;;2.22;;
14118;SDS011;7138;49.246;9.100;2022-08-11T03:56:20;4.22;;;2.10;;
14118;SDS011;7138;49.246;9.100;2022-08-11T03:59:32;6.55;;;2.17;;
14118;SDS011;7138;49.246;9.100;2022-08-11T04:02:44;4.80;;;2.15;;
14118;SDS011;7138;49.246;9.100;2022-08-11T04:06:12;6.82;;;2.22;;
14118;SDS011;7138;49.246;9.100;2022-08-11T04:19:20;7.30;;;2.35;;
14118;SDS011;7138;49.246;9.100;2022-08-11T04:22:34;6.38;;;2.38;;
14118;SDS011;7138;49.246;9.100;2022-08-11T04:25:35;4.80;;;2.10;;
14118;SDS011;7138;49.246;9.100;2022-08-11T04:28:40;5.15;;;1.98;;
14118;SDS011;7138;49.246;9.100;2022-08-11T04:31:35;8.05;;;2.08;;
14118;SDS011;7138;49.246;9.100;2022-08-11T04:37:42;5.80;;;2.30;;
14118;SDS011;7138;49.246;9.100;2022-08-11T04:40:42;4.15;;;2.00;;
14118;SDS011;7138;49.246;9.100;2022-08-11T04:44:00;4.65;;;2.00;;
14118;SDS011;7138;49.246;9.100;2022-08-11T04:50:31;4.85;;;2.10;;
14118;SDS011;7138;49.246;9.100;2022-08-11T04:53:42;4.35;;;2.25;;
14118;SDS011;7138;49.246;9.100;2022-08-11T04:56:42;5.55;;;2.20;;
14118;SDS011;7138;49.246;9.100;2022-08-11T05:06:08;4.55;;;2.03;;
14118;SDS011;7138;49.246;9.100;2022-08-11T05:09:20;4.18;;;2.20;;
14118;SDS011;7138;49.246;9.100;2022-08-11T05:12:17;4.53;;;1.98;;
14118;SDS011;7138;49.246;9.100;2022-08-11T05:14:54;5.57;;;2.00;;
14118;SDS011;7138;49.246;9.100;2022-08-11T05:17:43;7.05;;;1.95;;
14118;SDS011;7138;49.246;9.100;2022-08-11T05:20:42;6.78;;;2.58;;
14118;SDS011;7138;49.246;9.100;2022-08-11T05:23:35;8.82;;;1.98;;
14118;SDS011;7138;49.246;9.100;2022-08-11T05:26:42;5.80;;;2.28;;
14118;SDS011;7138;49.246;9.100;2022-08-11T05:29:41;3.80;;;2.10;;
14118;SDS011;7138;49.246;9.100;2022-08-11T05:32:32;4.43;;;1.90;;
14118;SDS011;7138;49.246;9.100;2022-08-11T05:35:25;6.82;;;2.03;;
14118;SDS011;7138;49.246;9.100;2022-08-11T05:37:56;6.80;;;1.95;;
14118;SDS011;7138;49.246;9.100;2022-08-11T05:40:48;4.25;;;1.90;;
14118;SDS011;7138;49.246;9.100;2022-08-11T05:43:40;3.97;;;2.00;;
14118;SDS011;7138;49.246;9.100;2022-08-11T05:46:28;4.28;;;2.03;;
14118;SDS011;7138;49.246;9.100;2022-08-11T05:49:21;6.40;;;2.15;;
14118;SDS011;7138;49.246;9.100;2022-08-11T05:52:12;5.35;;;2.17;;
14118;SDS011;7138;49.246;9.100;2022-08-11T05:55:00;4.45;;;2.10;;
14118;SDS011;7138;49.246;9.100;2022-08-11T05:57:53;3.70;;;1.83;;
14118;SDS011;7138;49.246;9.100;2022-08-11T06:00:20;4.43;;;1.70;;
14118;SDS011;7138;49.246;9.100;2022-08-11T06:02:49;6.05;;;2.10;;
14118;SDS011;7138;49.246;9.100;2022-08-11T06:05:19;7.15;;;2.25;;
14118;SDS011;7138;49.246;9.100;2022-08-11T06:07:46;3.97;;;2.10;;
14118;SDS011;7138;49.246;9.100;2022-08-11T06:10:13;6.38;;;2.05;;
14118;SDS011;7138;49.246;9.100;2022-08-11T06:15:22;4.70;;;1.85;;
14118;SDS011;7138;49.246;9.100;2022-08-11T06:17:50;6.65;;;2.42;;
14118;SDS011;7138;49.246;9.100;2022-08-11T06:20:19;5.85;;;1.77;;
14118;SDS011;7138;49.246;9.100;2022-08-11T06:22:47;6.72;;;2.15;;
14118;SDS011;7138;49.246;9.100;2022-08-11T06:25:22;4.95;;;1.83;;
14118;SDS011;7138;49.246;9.100;2022-08-11T06:27:57;5.95;;;1.88;;
14118;SDS011;7138;49.246;9.100;2022-08-11T06:30:31;6.75;;;2.20;;
14118;SDS011;7138;49.246;9.100;2022-08-11T06:33:03;5.97;;;1.90;;
14118;SDS011;7138;49.246;9.100;2022-08-11T06:35:35;5.43;;;1.65;;
14118;SDS011;7138;49.246;9.100;2022-08-11T06:38:20;12.10;;;2.20;;
14118;SDS011;7138;49.246;9.100;2022-08-11T06:41:02;6.88;;;2.28;;
14118;SDS011;7138;49.246;9.100;2022-08-11T06:44:02;4.90;;;2.00;;
14118;SDS011;7138;49.246;9.100;2022-08-11T06:46:43;3.80;;;2.15;;
14118;SDS011;7138;49.246;9.100;2022-08-11T06:49:15;6.82;;;1.90;;
14118;SDS011;7138;49.246;9.100;2022-08-11T06:52:04;8.07;;;1.80;;
14118;SDS011;7138;49.246;9.100;2022-08-11T06:54:34;5.05;;;1.90;;
14118;SDS011;7138;49.246;9.100;2022-08-11T06:57:05;4.95;;;1.80;;
14118;SDS011;7138;49.246;9.100;2022-08-11T06:59:56;3.47;;;1.65;;
14118;SDS011;7138;49.246;9.100;2022-08-11T07:02:42;6.03;;;2.28;;
14118;SDS011;7138;49.246;9.100;2022-08-11T07:05:18;5.15;;;2.30;;
14118;SDS011;7138;49.246;9.100;2022-08-11T07:11:26;4.05;;;1.80;;
14118;SDS011;7138;49.246;9.100;2022-08-11T07:14:50;5.97;;;1.83;;
14118;SDS011;7138;49.246;9.100;2022-08-11T07:17:42;4.93;;;1.85;;
14118;SDS011;7138;49.246;9.100;2022-08-11T07:20:13;5.03;;;1.90;;
14118;SDS011;7138;49.246;9.100;2022-08-11T07:23:01;7.05;;;2.20;;
14118;SDS011;7138;49.246;9.100;2022-08-11T07:26:03;4.18;;;1.70;;
14118;SDS011;7138;49.246;9.100;2022-08-11T07:28:49;3.13;;;1.65;;
14118;SDS011;7138;49.246;9.100;2022-08-11T07:31:23;6.38;;;2.00;;
14118;SDS011;7138;49.246;9.100;2022-08-11T07:34:03;4.80;;;1.92;;
14118;SDS011;7138;49.246;9.100;2022-08-11T07:36:45;4.30;;;1.98;;
14118;SDS011;7138;49.246;9.100;2022-08-11T07:39:16;6.22;;;1.95;;
14118;SDS011;7138;49.246;9.100;2022-08-11T07:41:46;5.25;;;2.25;;
14118;SDS011;7138;49.246;9.100;2022-08-11T07:44:13;6.05;;;2.30;;
14118;SDS011;7138;49.246;9.100;2022-08-11T07:46:42;4.70;;;2.08;;
14118;SDS011;7138;49.246;9.100;2022-08-11T07:49:32;6.05;;;2.10;;
14118;SDS011;7138;49.246;9.100;2022-08-11T07:52:20;5.85;;;1.83;;
14118;SDS011;7138;49.246;9.100;2022-08-11T07:54:55;5.93;;;2.00;;
14118;SDS011;7138;49.246;9.100;2022-08-11T07:57:25;5.80;;;1.95;;
14118;SDS011;7138;49.246;9.100;2022-08-11T08:00:11;7.78;;;2.13;;
14118;SDS011;7138;49.246;9.100;2022-08-11T08:02:57;4.53;;;1.85;;
14118;SDS011;7138;49.246;9.100;2022-08-11T08:05:45;6.63;;;2.63;;
14118;SDS011;7138;49.246;9.100;2022-08-11T08:08:32;5.13;;;2.00;;
14118;SDS011;7138;49.246;9.100;2022-08-11T08:11:19;3.63;;;1.98;;
14118;SDS011;7138;49.246;9.100;2022-08-11T08:14:06;7.50;;;2.25;;
14118;SDS011;7138;49.246;9.100;2022-08-11T08:16:52;3.67;;;2.03;;
14118;SDS011;7138;49.246;9.100;2022-08-11T08:19:38;5.45;;;2.00;;
14118;SDS011;7138;49.246;9.100;2022-08-11T08:22:09;3.85;;;1.92;;
14118;SDS011;7138;49.246;9.100;2022-08-11T08:24:39;6.20;;;2.45;;
14118;SDS011;7138;49.246;9.100;2022-08-11T08:27:05;4.40;;;2.13;;
14118;SDS011;7138;49.246;9.100;2022-08-11T08:29:33;5.03;;;1.95;;
14118;SDS011;7138;49.246;9.100;2022-08-11T08:32:20;8.32;;;2.00;;
14118;SDS011;7138;49.246;9.100;2022-08-11T08:34:48;5.63;;;1.80;;
14118;SDS011;7138;49.246;9.100;2022-08-11T08:37:18;6.30;;;1.87;;
14118;SDS011;7138;49.246;9.100;2022-08-11T08:39:53;4.72;;;1.88;;
14118;SDS011;7138;49.246;9.100;2022-08-11T08:42:20;4.03;;;1.90;;
14118;SDS011;7138;49.246;9.100;2022-08-11T08:44:54;6.30;;;2.33;;
14118;SDS011;7138;49.246;9.100;2022-08-11T08:47:29;5.13;;;2.00;;
14118;SDS011;7138;49.246;9.100;2022-08-11T08:50:01;6.53;;;2.17;;
14118;SDS011;7138;49.246;9.100;2022-08-11T08:52:34;6.03;;;2.00;;
14118;SDS011;7138;49.246;9.100;2022-08-11T08:55:08;5.13;;;2.08;;
14118;SDS011;7138;49.246;9.100;2022-08-11T08:57:41;4.90;;;1.88;;
14118;SDS011;7138;49.246;9.100;2022-08-11T09:00:10;5.00;;;2.10;;
14118;SDS011;7138;49.246;9.100;2022-08-11T09:02:40;5.88;;;1.95;;
14118;SDS011;7138;49.246;9.100;2022-08-11T09:05:07;6.22;;;1.88;;
14118;SDS011;7138;49.246;9.100;2022-08-11T09:07:36;4.85;;;2.10;;
14118;SDS011;7138;49.246;9.100;2022-08-11T09:10:04;8.02;;;2.08;;
14118;SDS011;7138;49.246;9.100;2022-08-11T09:12:33;5.82;;;1.80;;
14118;SDS011;7138;49.246;9.100;2022-08-11T09:15:02;3.90;;;1.50;;
14118;SDS011;7138;49.246;9.100;2022-08-11T09:20:56;4.38;;;1.80;;
14118;SDS011;7138;49.246;9.100;2022-08-11T09:23:27;4.40;;;1.80;;
14118;SDS011;7138;49.246;9.100;2022-08-11T09:26:12;2.97;;;1.48;;
14118;SDS011;7138;49.246;9.100;2022-08-11T09:28:59;5.18;;;1.70;;
14118;SDS011;7138;49.246;9.100;2022-08-11T09:31:27;5.10;;;1.70;;
14118;SDS011;7138;49.246;9.100;2022-08-11T09:33:57;4.18;;;1.50;;
14118;SDS011;7138;49.246;9.100;2022-08-11T09:36:24;4.50;;;1.80;;
14118;SDS011;7138;49.246;9.100;2022-08-11T09:39:11;3.33;;;1.50;;
14118;SDS011;7138;49.246;9.100;2022-08-11T09:41:57;3.55;;;1.70;;
14118;SDS011;7138;49.246;9.100;2022-08-11T09:44:26;3.65;;;1.67;;
14118;SDS011;7138;49.246;9.100;2022-08-11T09:47:12;4.88;;;1.33;;
14118;SDS011;7138;49.246;9.100;2022-08-11T09:49:47;4.35;;;1.30;;
14118;SDS011;7138;49.246;9.100;2022-08-11T09:54:45;5.07;;;1.42;;
14118;SDS011;7138;49.246;9.100;2022-08-11T09:57:13;2.88;;;1.20;;
14118;SDS011;7138;49.246;9.100;2022-08-11T10:00:03;5.70;;;1.30;;
14118;SDS011;7138;49.246;9.100;2022-08-11T10:02:33;3.63;;;1.38;;
14118;SDS011;7138;49.246;9.100;2022-08-11T10:05:06;2.90;;;1.20;;
14118;SDS011;7138;49.246;9.100;2022-08-11T10:07:53;6.00;;;1.20;;
14118;SDS011;7138;49.246;9.100;2022-08-11T10:10:21;5.63;;;1.35;;
14118;SDS011;7138;49.246;9.100;2022-08-11T10:12:50;4.10;;;1.23;;
14118;SDS011;7138;49.246;9.100;2022-08-11T10:15:23;5.90;;;1.20;;
14118;SDS011;7138;49.246;9.100;2022-08-11T10:18:05;3.80;;;1.50;;
14118;SDS011;7138;49.246;9.100;2022-08-11T10:20:54;4.10;;;1.35;;
14118;SDS011;7138;49.246;9.100;2022-08-11T10:23:25;6.95;;;1.20;;
14118;SDS011;7138;49.246;9.100;2022-08-11T10:26:16;2.83;;;1.02;;
14118;SDS011;7138;49.246;9.100;2022-08-11T10:29:03;3.50;;;1.08;;
14118;SDS011;7138;49.246;9.100;2022-08-11T10:31:51;6.45;;;1.30;;
14118;SDS011;7138;49.246;9.100;2022-08-11T10:34:38;5.82;;;1.30;;
14118;SDS011;7138;49.246;9.100;2022-08-11T10:37:06;3.97;;;1.45;;
14118;SDS011;7138;49.246;9.100;2022-08-11T10:39:33;5.03;;;1.40;;
14118;SDS011;7138;49.246;9.100;2022-08-11T10:42:03;5.75;;;1.45;;
14118;SDS011;7138;49.246;9.100;2022-08-11T10:44:50;2.25;;;1.15;;
14118;SDS011;7138;49.246;9.100;2022-08-11T10:47:19;4.57;;;1.17;;
14118;SDS011;7138;49.246;9.100;2022-08-11T10:49:59;5.07;;;1.40;;
14118;SDS011;7138;49.246;9.100;2022-08-11T10:52:45;4.57;;;1.33;;
14118;SDS011;7138;49.246;9.100;2022-08-11T10:55:33;4.05;;;1.30;;
14118;SDS011;7138;49.246;9.100;2022-08-11T10:58:21;4.90;;;1.40;;
14118;SDS011;7138;49.246;9.100;2022-08-11T11:01:06;3.55;;;1.48;;
14118;SDS011;7138;49.246;9.100;2022-08-11T11:03:34;5.43;;;1.30;;
14118;SDS011;7138;49.246;9.100;2022-08-11T11:06:03;6.53;;;1.38;;
14118;SDS011;7138;49.246;9.100;2022-08-11T11:08:41;3.08;;;1.30;;
14118;SDS011;7138;49.246;9.100;2022-08-11T11:11:18;3.97;;;1.30;;
14118;SDS011;7138;49.246;9.100;2022-08-11T11:13:48;3.97;;;1.38;;
14118;SDS011;7138;49.246;9.100;2022-08-11T11:16:34;5.03;;;1.38;;
14118;SDS011;7138;49.246;9.100;2022-08-11T11:19:15;4.32;;;1.30;;
14118;SDS011;7138;49.246;9.100;2022-08-11T11:21:47;7.10;;;1.48;;
14118;SDS011;7138;49.246;9.100;2022-08-11T11:24:22;2.80;;;1.30;;
14118;SDS011;7138;49.246;9.100;2022-08-11T11:27:04;5.43;;;1.30;;
14118;SDS011;7138;49.246;9.100;2022-08-11T11:29:52;4.65;;;1.20;;
14118;SDS011;7138;49.246;9.100;2022-08-11T11:32:29;3.45;;;1.30;;
14118;SDS011;7138;49.246;9.100;2022-08-11T11:35:12;4.05;;;1.40;;
14118;SDS011;7138;49.246;9.100;2022-08-11T11:38:00;5.35;;;1.30;;
14118;SDS011;7138;49.246;9.100;2022-08-11T11:40:29;4.05;;;1.25;;
14118;SDS011;7138;49.246;9.100;2022-08-11T11:42:56;2.88;;;1.33;;
14118;SDS011;7138;49.246;9.100;2022-08-11T11:45:25;4.45;;;1.30;;
14118;SDS011;7138;49.246;9.100;2022-08-11T11:47:51;6.15;;;1.50;;
14118;SDS011;7138;49.246;9.100;2022-08-11T11:50:22;3.28;;;1.27;;
14118;SDS011;7138;49.246;9.100;2022-08-11T11:52:51;3.15;;;1.25;;
14118;SDS011;7138;49.246;9.100;2022-08-11T11:55:19;2.70;;;1.20;;
14118;SDS011;7138;49.246;9.100;2022-08-11T11:57:48;4.13;;;1.30;;
14118;SDS011;7138;49.246;9.100;2022-08-11T12:00:35;2.85;;;1.02;;
14118;SDS011;7138;49.246;9.100;2022-08-11T12:03:21;3.50;;;1.33;;
14118;SDS011;7138;49.246;9.100;2022-08-11T12:05:50;3.20;;;1.10;;
14118;SDS011;7138;49.246;9.100;2022-08-11T12:08:17;2.95;;;1.20;;
14118;SDS011;7138;49.246;9.100;2022-08-11T12:10:46;3.60;;;1.30;;
14118;SDS011;7138;49.246;9.100;2022-08-11T12:16:08;3.05;;;1.25;;
14118;SDS011;7138;49.246;9.100;2022-08-11T12:18:37;4.50;;;1.20;;
14118;SDS011;7138;49.246;9.100;2022-08-11T12:21:06;5.13;;;1.30;;
14118;SDS011;7138;49.246;9.100;2022-08-11T12:23:34;5.07;;;1.40;;
14118;SDS011;7138;49.246;9.100;2022-08-11T12:26:22;2.55;;;1.27;;
14118;SDS011;7138;49.246;9.100;2022-08-11T12:29:08;3.65;;;1.20;;
14118;SDS011;7138;49.246;9.100;2022-08-11T12:31:38;4.53;;;1.40;;
14118;SDS011;7138;49.246;9.100;2022-08-11T12:34:07;7.05;;;1.45;;
14118;SDS011;7138;49.246;9.100;2022-08-11T12:36:35;7.50;;;1.80;;
14118;SDS011;7138;49.246;9.100;2022-08-11T12:39:04;6.80;;;1.30;;
14118;SDS011;7138;49.246;9.100;2022-08-11T12:41:35;4.90;;;1.52;;
14118;SDS011;7138;49.246;9.100;2022-08-11T12:44:22;4.03;;;1.25;;
14118;SDS011;7138;49.246;9.100;2022-08-11T12:47:14;6.18;;;1.55;;
14118;SDS011;7138;49.246;9.100;2022-08-11T12:49:45;5.85;;;1.48;;
14118;SDS011;7138;49.246;9.100;2022-08-11T12:52:33;4.73;;;1.33;;
14118;SDS011;7138;49.246;9.100;2022-08-11T12:55:09;4.35;;;1.15;;
14118;SDS011;7138;49.246;9.100;2022-08-11T12:57:59;2.70;;;1.20;;
14118;SDS011;7138;49.246;9.100;2022-08-11T13:00:41;3.00;;;1.42;;
14118;SDS011;7138;49.246;9.100;2022-08-11T13:03:29;6.40;;;1.23;;
14118;SDS011;7138;49.246;9.100;2022-08-11T13:06:17;3.80;;;1.50;;
14118;SDS011;7138;49.246;9.100;2022-08-11T13:08:48;4.32;;;1.40;;
14118;SDS011;7138;49.246;9.100;2022-08-11T13:11:15;5.43;;;1.67;;
14118;SDS011;7138;49.246;9.100;2022-08-11T13:14:00;10.20;;;1.52;;
14118;SDS011;7138;49.246;9.100;2022-08-11T13:16:29;4.75;;;1.55;;
14118;SDS011;7138;49.246;9.100;2022-08-11T13:19:18;3.85;;;1.38;;
14118;SDS011;7138;49.246;9.100;2022-08-11T13:21:47;5.20;;;1.60;;
14118;SDS011;7138;49.246;9.100;2022-08-11T13:24:16;3.58;;;1.35;;
14118;SDS011;7138;49.246;9.100;2022-08-11T13:26:44;3.78;;;1.35;;
14118;SDS011;7138;49.246;9.100;2022-08-11T13:29:12;4.50;;;1.40;;
14118;SDS011;7138;49.246;9.100;2022-08-11T13:31:41;5.45;;;1.50;;
14118;SDS011;7138;49.246;9.100;2022-08-11T13:34:07;5.00;;;1.25;;
14118;SDS011;7138;49.246;9.100;2022-08-11T13:36:35;4.28;;;1.20;;
14118;SDS011;7138;49.246;9.100;2022-08-11T13:39:02;3.10;;;1.10;;
14118;SDS011;7138;49.246;9.100;2022-08-11T13:41:29;4.10;;;0.90;;
14118;SDS011;7138;49.246;9.100;2022-08-11T13:44:03;3.72;;;1.40;;
14118;SDS011;7138;49.246;9.100;2022-08-11T13:46:30;3.78;;;1.73;;
14118;SDS011;7138;49.246;9.100;2022-08-11T13:48:58;8.50;;;1.40;;
14118;SDS011;7138;49.246;9.100;2022-08-11T13:51:24;2.85;;;1.10;;
14118;SDS011;7138;49.246;9.100;2022-08-11T13:53:56;2.60;;;1.13;;
14118;SDS011;7138;49.246;9.100;2022-08-11T13:56:25;4.03;;;1.30;;
14118;SDS011;7138;49.246;9.100;2022-08-11T13:58:52;5.65;;;1.13;;
14118;SDS011;7138;49.246;9.100;2022-08-11T14:01:20;2.83;;;1.23;;
14118;SDS011;7138;49.246;9.100;2022-08-11T14:03:50;4.10;;;1.50;;
14118;SDS011;7138;49.246;9.100;2022-08-11T14:06:18;2.88;;;1.27;;
14118;SDS011;7138;49.246;9.100;2022-08-11T14:08:46;5.72;;;1.30;;
14118;SDS011;7138;49.246;9.100;2022-08-11T14:11:18;7.57;;;1.58;;
14118;SDS011;7138;49.246;9.100;2022-08-11T14:14:04;4.38;;;1.40;;
14118;SDS011;7138;49.246;9.100;2022-08-11T14:16:39;4.68;;;1.42;;
14118;SDS011;7138;49.246;9.100;2022-08-11T14:19:08;5.95;;;1.33;;
14118;SDS011;7138;49.246;9.100;2022-08-11T14:21:39;5.25;;;1.30;;
14118;SDS011;7138;49.246;9.100;2022-08-11T14:24:27;7.18;;;1.33;;
14118;SDS011;7138;49.246;9.100;2022-08-11T14:26:56;3.03;;;1.40;;
14118;SDS011;7138;49.246;9.100;2022-08-11T14:29:25;4.28;;;1.30;;
14118;SDS011;7138;49.246;9.100;2022-08-11T14:31:54;5.30;;;1.40;;
14118;SDS011;7138;49.246;9.100;2022-08-11T14:34:22;3.88;;;1.30;;
14118;SDS011;7138;49.246;9.100;2022-08-11T14:36:54;4.15;;;1.38;;
14118;SDS011;7138;49.246;9.100;2022-08-11T14:39:23;5.60;;;1.30;;
14118;SDS011;7138;49.246;9.100;2022-08-11T14:41:53;6.10;;;1.30;;
14118;SDS011;7138;49.246;9.100;2022-08-11T14:44:42;6.40;;;1.38;;
14118;SDS011;7138;49.246;9.100;2022-08-11T14:47:30;5.70;;;1.40;;
14118;SDS011;7138;49.246;9.100;2022-08-11T14:49:58;2.80;;;1.10;;
14118;SDS011;7138;49.246;9.100;2022-08-11T14:52:27;7.53;;;1.25;;
14118;SDS011;7138;49.246;9.100;2022-08-11T14:54:59;4.80;;;1.45;;
14118;SDS011;7138;49.246;9.100;2022-08-11T14:57:46;4.65;;;1.40;;
14118;SDS011;7138;49.246;9.100;2022-08-11T15:00:15;3.15;;;1.20;;
14118;SDS011;7138;49.246;9.100;2022-08-11T15:02:42;4.05;;;1.30;;
14118;SDS011;7138;49.246;9.100;2022-08-11T15:05:31;3.38;;;1.00;;
14118;SDS011;7138;49.246;9.100;2022-08-11T15:07:57;4.10;;;1.30;;
14118;SDS011;7138;49.246;9.100;2022-08-11T15:10:25;6.55;;;1.38;;
14118;SDS011;7138;49.246;9.100;2022-08-11T15:12:53;3.80;;;1.38;;
14118;SDS011;7138;49.246;9.100;2022-08-11T15:15:20;4.40;;;1.20;;
14118;SDS011;7138;49.246;9.100;2022-08-11T15:18:09;3.25;;;1.23;;
14118;SDS011;7138;49.246;9.100;2022-08-11T15:20:41;3.80;;;1.10;;
14118;SDS011;7138;49.246;9.100;2022-08-11T15:23:26;5.50;;;1.60;;
14118;SDS011;7138;49.246;9.100;2022-08-11T15:26:12;3.72;;;1.27;;
14118;SDS011;7138;49.246;9.100;2022-08-11T15:28:45;5.25;;;1.30;;
14118;SDS011;7138;49.246;9.100;2022-08-11T15:31:33;3.60;;;1.20;;
14118;SDS011;7138;49.246;9.100;2022-08-11T15:34:22;3.83;;;1.20;;
14118;SDS011;7138;49.246;9.100;2022-08-11T15:37:12;5.00;;;1.20;;
14118;SDS011;7138;49.246;9.100;2022-08-11T15:39:55;4.13;;;1.27;;
14118;SDS011;7138;49.246;9.100;2022-08-11T15:42:54;6.95;;;1.40;;
14118;SDS011;7138;49.246;9.100;2022-08-11T15:45:46;5.38;;;1.35;;
14118;SDS011;7138;49.246;9.100;2022-08-11T15:48:20;8.55;;;1.50;;
14118;SDS011;7138;49.246;9.100;2022-08-11T15:51:01;4.85;;;1.40;;
14118;SDS011;7138;49.246;9.100;2022-08-11T15:53:37;4.35;;;1.20;;
14118;SDS011;7138;49.246;9.100;2022-08-11T15:56:06;3.55;;;1.30;;
14118;SDS011;7138;49.246;9.100;2022-08-11T15:58:37;2.50;;;1.10;;
14118;SDS011;7138;49.246;9.100;2022-08-11T16:01:29;4.55;;;1.20;;
14118;SDS011;7138;49.246;9.100;2022-08-11T16:04:17;2.55;;;1.10;;
14118;SDS011;7138;49.246;9.100;2022-08-11T16:06:50;5.75;;;1.17;;
14118;SDS011;7138;49.246;9.100;2022-08-11T16:09:22;2.88;;;0.95;;
14118;SDS011;7138;49.246;9.100;2022-08-11T16:11:55;3.90;;;1.33;;
14118;SDS011;7138;49.246;9.100;2022-08-11T16:14:27;2.65;;;1.25;;
14118;SDS011;7138;49.246;9.100;2022-08-11T16:17:20;4.13;;;1.38;;
14118;SDS011;7138;49.246;9.100;2022-08-11T16:19:50;5.00;;;1.17;;
14118;SDS011;7138;49.246;9.100;2022-08-11T16:22:22;5.55;;;1.33;;
14118;SDS011;7138;49.246;9.100;2022-08-11T16:25:00;3.63;;;1.30;;
14118;SDS011;7138;49.246;9.100;2022-08-11T16:27:30;5.13;;;1.10;;
14118;SDS011;7138;49.246;9.100;2022-08-11T16:30:01;3.88;;;1.40;;
14118;SDS011;7138;49.246;9.100;2022-08-11T16:32:31;3.33;;;1.25;;
14118;SDS011;7138;49.246;9.100;2022-08-11T16:35:01;9.02;;;1.50;;
14118;SDS011;7138;49.246;9.100;2022-08-11T16:37:52;2.95;;;1.33;;
14118;SDS011;7138;49.246;9.100;2022-08-11T16:40:39;5.80;;;1.20;;
14118;SDS011;7138;49.246;9.100;2022-08-11T16:43:07;2.70;;;1.30;;
14118;SDS011;7138;49.246;9.100;2022-08-11T16:45:58;4.13;;;1.25;;
14118;SDS011;7138;49.246;9.100;2022-08-11T16:48:48;2.43;;;1.23;;
14118;SDS011;7138;49.246;9.100;2022-08-11T16:51:17;4.28;;;1.20;;
14118;SDS011;7138;49.246;9.100;2022-08-11T16:53:45;3.35;;;1.42;;
14118;SDS011;7138;49.246;9.100;2022-08-11T16:56:13;4.07;;;1.20;;
14118;SDS011;7138;49.246;9.100;2022-08-11T16:58:45;3.78;;;1.20;;
14118;SDS011;7138;49.246;9.100;2022-08-11T17:04:05;3.17;;;1.20;;
14118;SDS011;7138;49.246;9.100;2022-08-11T17:06:56;4.13;;;1.25;;
14118;SDS011;7138;49.246;9.100;2022-08-11T17:09:41;3.88;;;1.35;;
14118;SDS011;7138;49.246;9.100;2022-08-11T17:12:30;6.68;;;2.20;;
14118;SDS011;7138;49.246;9.100;2022-08-11T17:15:17;3.13;;;1.23;;
14118;SDS011;7138;49.246;9.100;2022-08-11T17:18:05;5.22;;;1.45;;
14118;SDS011;7138;49.246;9.100;2022-08-11T17:20:38;6.03;;;1.50;;
14118;SDS011;7138;49.246;9.100;2022-08-11T17:23:05;2.45;;;1.23;;
14118;SDS011;7138;49.246;9.100;2022-08-11T17:25:51;3.13;;;1.40;;
14118;SDS011;7138;49.246;9.100;2022-08-11T17:28:18;6.30;;;1.80;;
14118;SDS011;7138;49.246;9.100;2022-08-11T17:30:46;2.45;;;1.17;;
14118;SDS011;7138;49.246;9.100;2022-08-11T17:33:50;5.35;;;1.50;;
14118;SDS011;7138;49.246;9.100;2022-08-11T17:36:38;3.65;;;1.35;;
14118;SDS011;7138;49.246;9.100;2022-08-11T17:39:08;4.13;;;1.40;;